createdAt,value
2023-01-07T00:01:44.709Z,20.67
2023-01-07T00:04:13.731Z,18.00
2023-01-07T00:06:42.171Z,17.30
2023-01-07T00:09:12.936Z,15.83
2023-01-07T00:11:41.500Z,15.13
2023-01-07T00:14:10.881Z,15.87
2023-01-07T00:16:38.396Z,18.80
2023-01-07T00:19:07.469Z,16.40
2023-01-07T00:21:34.755Z,15.87
2023-01-07T00:24:04.495Z,15.23
2023-01-07T00:26:35.064Z,16.40
2023-01-07T00:29:01.909Z,14.93
2023-01-07T00:31:31.642Z,10.77
2023-01-07T00:33:58.496Z,11.33
2023-01-07T00:36:30.940Z,13.83
2023-01-07T00:39:00.257Z,12.77
2023-01-07T00:41:27.379Z,14.00
2023-01-07T00:43:54.855Z,15.43
2023-01-07T00:46:21.956Z,13.30
2023-01-07T00:48:49.300Z,11.47
2023-01-07T00:51:17.664Z,11.07
2023-01-07T00:53:44.952Z,12.00
2023-01-07T00:56:14.332Z,11.40
2023-01-07T00:58:41.698Z,10.97
2023-01-07T01:01:09.587Z,10.70
2023-01-07T01:03:36.619Z,10.83
2023-01-07T01:06:05.557Z,13.23
2023-01-07T01:08:32.472Z,9.90
2023-01-07T01:11:04.132Z,9.77
2023-01-07T01:13:31.082Z,10.73
2023-01-07T01:15:57.930Z,14.00
2023-01-07T01:18:24.740Z,11.93
2023-01-07T01:20:51.765Z,15.40
2023-01-07T01:23:18.665Z,13.47
2023-01-07T01:25:45.413Z,16.27
2023-01-07T01:28:12.195Z,11.80
2023-01-07T01:30:38.945Z,17.70
2023-01-07T01:33:05.855Z,15.23
2023-01-07T01:35:32.687Z,18.03
2023-01-07T01:38:00.902Z,17.37
2023-01-07T01:40:30.381Z,14.20
2023-01-07T01:42:57.234Z,19.73
2023-01-07T01:45:26.164Z,17.47
2023-01-07T01:48:06.523Z,18.87
2023-01-07T01:50:43.300Z,15.60
2023-01-07T01:53:25.828Z,12.73
2023-01-07T01:56:01.097Z,15.20
2023-01-07T01:58:38.902Z,17.63
2023-01-07T02:01:06.411Z,16.60
2023-01-07T02:03:36.411Z,16.47
2023-01-07T02:06:04.109Z,16.23
2023-01-07T02:08:31.225Z,15.33
2023-01-07T02:11:28.239Z,16.53
2023-01-07T02:14:14.543Z,13.80
2023-01-07T02:16:49.625Z,19.27
2023-01-07T02:20:06.210Z,15.23
2023-01-07T02:23:14.539Z,12.73
2023-01-07T02:26:18.905Z,14.37
2023-01-07T02:29:47.409Z,14.20
2023-01-07T02:32:40.756Z,17.33
2023-01-07T02:35:30.460Z,13.33
2023-01-07T02:38:16.461Z,15.70
2023-01-07T02:41:15.034Z,14.70
2023-01-07T02:44:13.983Z,15.70
2023-01-07T02:46:53.865Z,14.50
2023-01-07T02:49:21.454Z,11.63
2023-01-07T02:51:48.310Z,15.90
2023-01-07T02:54:23.499Z,14.80
2023-01-07T02:57:06.508Z,11.93
2023-01-07T03:00:04.201Z,12.47
2023-01-07T03:02:50.780Z,11.17
2023-01-07T03:05:23.856Z,14.60
2023-01-07T03:08:32.440Z,12.23
2023-01-07T03:11:02.691Z,14.27
2023-01-07T03:13:38.789Z,14.77
2023-01-07T03:16:11.409Z,11.03
2023-01-07T03:18:44.118Z,13.07
2023-01-07T03:21:14.958Z,11.43
2023-01-07T03:23:51.034Z,12.57
2023-01-07T03:26:30.610Z,14.60
2023-01-07T03:29:01.741Z,13.90
2023-01-07T03:31:30.754Z,9.33
2023-01-07T03:34:08.062Z,11.67
2023-01-07T03:36:42.321Z,9.33
2023-01-07T03:39:11.447Z,9.40
2023-01-07T03:41:58.404Z,11.97
2023-01-07T03:44:26.269Z,12.53
2023-01-07T03:46:53.628Z,13.27
2023-01-07T03:49:20.603Z,9.30
2023-01-07T03:51:49.413Z,13.40
2023-01-07T03:54:16.926Z,12.00
2023-01-07T03:56:43.944Z,9.30
2023-01-07T03:59:10.924Z,13.43
2023-01-07T04:01:38.765Z,10.90
2023-01-07T04:04:06.027Z,12.83
2023-01-07T04:06:33.061Z,10.97
2023-01-07T04:09:00.119Z,12.33
2023-01-07T04:11:27.627Z,12.03
2023-01-07T04:13:54.927Z,10.30
2023-01-07T04:16:21.965Z,10.30
2023-01-07T04:18:48.776Z,10.57
2023-01-07T04:21:15.701Z,10.63
2023-01-07T04:23:42.584Z,9.87
2023-01-07T04:26:10.377Z,7.70
2023-01-07T04:28:38.891Z,8.10
2023-01-07T04:31:05.952Z,10.40
2023-01-07T04:33:35.978Z,9.43
2023-01-07T04:36:03.299Z,14.73
2023-01-07T04:38:30.476Z,12.40
2023-01-07T04:40:57.313Z,9.63
2023-01-07T04:43:24.375Z,9.87
2023-01-07T04:45:51.440Z,7.57
2023-01-07T04:48:18.827Z,10.30
2023-01-07T04:50:47.755Z,9.93
2023-01-07T04:53:15.708Z,9.43
2023-01-07T04:55:44.346Z,11.63
2023-01-07T04:58:12.869Z,9.00
2023-01-07T05:00:40.529Z,11.27
2023-01-07T05:03:08.032Z,10.67
2023-01-07T05:05:35.930Z,11.53
2023-01-07T05:08:04.282Z,7.00
2023-01-07T05:10:33.050Z,10.20
2023-01-07T05:13:06.853Z,7.80
2023-01-07T05:15:34.956Z,9.27
2023-01-07T05:18:01.817Z,10.23
2023-01-07T05:20:28.581Z,9.80
2023-01-07T05:22:55.589Z,12.60
2023-01-07T05:25:22.394Z,11.90
2023-01-07T05:27:49.539Z,7.33
2023-01-07T05:30:16.659Z,9.17
2023-01-07T05:32:44.600Z,12.07
2023-01-07T05:35:12.253Z,11.63
2023-01-07T05:37:39.076Z,11.03
2023-01-07T05:40:08.353Z,10.23
2023-01-07T05:42:35.464Z,9.50
2023-01-07T05:45:02.619Z,7.33
2023-01-07T05:47:29.378Z,8.13
2023-01-07T05:49:56.136Z,7.20
2023-01-07T05:52:22.937Z,8.73
2023-01-07T05:54:49.775Z,10.40
2023-01-07T05:57:16.612Z,9.93
2023-01-07T05:59:43.375Z,10.07
2023-01-07T06:02:10.149Z,7.53
2023-01-07T06:04:36.892Z,7.17
2023-01-07T06:07:03.675Z,6.70
2023-01-07T06:09:30.449Z,8.47
2023-01-07T06:11:57.645Z,9.03
2023-01-07T06:14:24.420Z,10.23
2023-01-07T06:16:51.239Z,5.73
2023-01-07T06:19:18.093Z,9.77
2023-01-07T06:21:44.831Z,5.57
2023-01-07T06:24:11.692Z,6.33
2023-01-07T06:26:38.473Z,6.13
2023-01-07T06:29:05.279Z,6.50
2023-01-07T06:31:32.143Z,7.40
2023-01-07T06:33:58.944Z,5.73
2023-01-07T06:36:25.697Z,4.23
2023-01-07T06:38:52.456Z,5.53
2023-01-07T06:41:19.217Z,5.93
2023-01-07T06:43:46.001Z,8.83
2023-01-07T06:46:12.896Z,8.83
2023-01-07T06:48:39.685Z,6.13
2023-01-07T06:51:06.437Z,6.77
2023-01-07T06:53:33.313Z,4.93
2023-01-07T06:56:00.137Z,6.30
2023-01-07T06:58:26.885Z,6.40
2023-01-07T07:00:53.623Z,7.87
2023-01-07T07:03:20.520Z,5.37
2023-01-07T07:05:47.273Z,4.13
2023-01-07T07:08:14.135Z,4.67
2023-01-07T07:10:40.879Z,5.13
2023-01-07T07:13:08.327Z,8.57
2023-01-07T07:15:35.061Z,5.97
2023-01-07T07:18:01.826Z,6.23
2023-01-07T07:20:28.729Z,3.73
2023-01-07T07:22:55.671Z,4.47
2023-01-07T07:25:22.440Z,3.43
2023-01-07T07:27:49.157Z,5.90
2023-01-07T07:30:16.430Z,4.33
2023-01-07T07:32:43.385Z,3.87
2023-01-07T07:35:11.149Z,6.63
2023-01-07T07:37:38.688Z,4.30
2023-01-07T07:40:06.810Z,3.40
2023-01-07T07:43:10.411Z,4.33
2023-01-07T07:45:20.418Z,6.13
2023-01-07T07:47:47.347Z,3.50
2023-01-07T07:50:14.195Z,3.77
2023-01-07T07:52:41.114Z,4.67
2023-01-07T07:55:20.108Z,3.63
2023-01-07T07:57:58.982Z,2.87
2023-01-07T08:00:25.818Z,3.80
2023-01-07T08:02:52.590Z,4.97
2023-01-07T08:05:19.561Z,3.43
2023-01-07T08:07:46.299Z,6.97
2023-01-07T08:10:13.136Z,3.37
2023-01-07T08:12:39.952Z,2.53
2023-01-07T08:15:08.047Z,2.87
2023-01-07T08:17:36.232Z,2.63
2023-01-07T08:20:04.864Z,4.77
2023-01-07T08:22:33.263Z,2.23
2023-01-07T08:25:00.162Z,3.57
2023-01-07T08:27:27.895Z,2.13
2023-01-07T08:29:55.602Z,5.03
2023-01-07T08:32:22.916Z,2.27
2023-01-07T08:34:50.181Z,1.80
2023-01-07T08:37:17.018Z,3.03
2023-01-07T08:39:43.824Z,2.63
2023-01-07T08:42:10.630Z,2.47
2023-01-07T08:44:37.502Z,2.10
2023-01-07T08:47:04.285Z,2.10
2023-01-07T08:49:31.504Z,2.37
2023-01-07T08:51:58.285Z,2.07
2023-01-07T08:54:25.133Z,3.23
2023-01-07T08:56:51.979Z,2.37
2023-01-07T08:59:18.933Z,2.67
2023-01-07T09:01:46.029Z,2.50
2023-01-07T09:04:12.988Z,2.73
2023-01-07T09:06:39.745Z,2.23
2023-01-07T09:09:06.734Z,2.20
2023-01-07T09:11:33.482Z,2.23
2023-01-07T09:14:00.218Z,2.53
2023-01-07T09:16:27.026Z,2.90
2023-01-07T09:18:53.798Z,3.20
2023-01-07T09:21:20.566Z,2.47
2023-01-07T09:23:47.418Z,1.93
2023-01-07T09:26:14.222Z,2.50
2023-01-07T09:28:41.190Z,3.43
2023-01-07T09:31:08.068Z,1.80
2023-01-07T09:33:34.951Z,2.73
2023-01-07T09:36:01.843Z,2.03
2023-01-07T09:38:28.683Z,1.90
2023-01-07T09:40:55.759Z,1.70
2023-01-07T09:43:59.453Z,3.20
2023-01-07T09:46:24.132Z,2.13
2023-01-07T09:49:00.327Z,2.50
2023-01-07T09:51:41.140Z,3.13
2023-01-07T09:54:21.395Z,2.10
2023-01-07T09:56:48.316Z,2.00
2023-01-07T09:59:16.941Z,2.23
2023-01-07T10:01:58.733Z,2.30
2023-01-07T10:04:34.514Z,2.10
2023-01-07T10:07:07.964Z,3.93
2023-01-07T10:09:49.434Z,6.50
2023-01-07T10:12:22.649Z,2.00
2023-01-07T10:15:05.136Z,4.03
2023-01-07T10:17:46.940Z,2.27
2023-01-07T10:20:21.530Z,3.07
2023-01-07T10:22:57.480Z,2.27
2023-01-07T10:25:33.831Z,2.97
2023-01-07T10:28:06.255Z,2.03
2023-01-07T10:30:41.724Z,2.30
2023-01-07T10:33:29.497Z,2.23
2023-01-07T10:36:26.693Z,3.27
2023-01-07T10:39:12.282Z,2.07
2023-01-07T10:41:56.435Z,1.90
2023-01-07T10:44:46.757Z,2.60
2023-01-07T10:47:19.533Z,2.10
2023-01-07T10:49:53.760Z,2.00
2023-01-07T10:52:55.471Z,4.27
2023-01-07T10:55:34.780Z,2.13
2023-01-07T10:58:03.024Z,2.63
2023-01-07T11:00:30.107Z,2.73
2023-01-07T11:02:59.760Z,1.90
2023-01-07T11:05:34.468Z,1.90
2023-01-07T11:08:02.819Z,1.50
2023-01-07T11:10:33.275Z,1.60
2023-01-07T11:13:06.651Z,1.77
2023-01-07T11:15:46.352Z,1.67
2023-01-07T11:18:31.861Z,2.27
2023-01-07T11:21:00.291Z,2.40
2023-01-07T11:23:38.202Z,2.30
2023-01-07T11:26:10.056Z,2.00
2023-01-07T11:28:40.759Z,3.33
2023-01-07T11:31:07.523Z,1.70
2023-01-07T11:34:02.095Z,1.93
2023-01-07T11:36:43.313Z,3.47
2023-01-07T11:39:23.579Z,1.77
2023-01-07T11:41:55.966Z,3.67
2023-01-07T11:44:23.715Z,2.23
2023-01-07T11:46:51.141Z,1.33
2023-01-07T11:49:27.948Z,2.07
2023-01-07T11:51:55.622Z,1.63
2023-01-07T11:54:26.584Z,1.53
2023-01-07T11:57:09.852Z,2.10
2023-01-07T11:59:36.610Z,1.93
2023-01-07T12:02:03.387Z,1.43
2023-01-07T12:04:32.960Z,2.03
2023-01-07T12:07:13.015Z,1.47
2023-01-07T12:09:41.880Z,3.40
2023-01-07T12:12:34.998Z,1.87
2023-01-07T12:15:06.184Z,1.70
2023-01-07T12:17:35.183Z,1.50
2023-01-07T12:20:35.677Z,3.13
2023-01-07T12:23:21.456Z,2.80
2023-01-07T12:25:54.436Z,1.70
2023-01-07T12:28:47.285Z,1.73
2023-01-07T12:31:20.462Z,1.80
2023-01-07T12:34:14.544Z,1.60
2023-01-07T12:36:54.720Z,1.83
2023-01-07T12:39:35.500Z,2.17
2023-01-07T12:42:14.509Z,3.47
2023-01-07T12:44:49.606Z,2.73
2023-01-07T12:47:31.619Z,2.33
2023-01-07T12:50:15.381Z,1.60
2023-01-07T12:52:51.197Z,1.93
2023-01-07T12:55:37.234Z,2.27
2023-01-07T12:58:45.198Z,1.90
2023-01-07T13:01:44.979Z,1.77
2023-01-07T13:04:20.974Z,3.43
2023-01-07T13:06:58.705Z,1.93
2023-01-07T13:09:57.726Z,1.43
2023-01-07T13:12:48.310Z,1.83
2023-01-07T13:15:27.292Z,2.30
2023-01-07T13:17:59.324Z,2.10
2023-01-07T13:20:35.463Z,1.63
2023-01-07T13:23:04.430Z,1.70
2023-01-07T13:25:37.367Z,2.97
2023-01-07T13:28:19.116Z,1.93
2023-01-07T13:31:19.715Z,1.67
2023-01-07T13:34:07.904Z,1.87
